createdAt,value
2022-11-28T00:02:12.487Z,46.47
2022-11-28T00:07:15.507Z,46.92
2022-11-28T00:12:18.425Z,50.80
2022-11-28T00:17:22.713Z,49.53
2022-11-28T00:22:27.970Z,45.80
2022-11-28T00:27:30.832Z,46.00
2022-11-28T00:32:35.685Z,47.13
2022-11-28T00:37:38.569Z,46.83
2022-11-28T00:42:41.453Z,46.53
2022-11-28T00:47:46.876Z,43.95
2022-11-28T00:52:50.288Z,47.42
2022-11-28T00:57:55.143Z,46.25
2022-11-28T01:02:59.610Z,46.65
2022-11-28T01:08:02.471Z,46.88
2022-11-28T01:13:05.340Z,47.08
2022-11-28T01:18:35.576Z,47.10
2022-11-28T01:23:38.898Z,49.83
2022-11-28T01:28:41.804Z,45.35
2022-11-28T01:33:46.135Z,46.65
2022-11-28T01:43:30.135Z,44.50
2022-11-28T01:48:37.671Z,46.67
2022-11-28T01:53:45.229Z,48.45
2022-11-28T01:58:55.960Z,44.30
2022-11-28T02:04:00.240Z,45.55
2022-11-28T02:09:03.150Z,45.40
2022-11-28T02:14:18.274Z,45.50
2022-11-28T02:19:53.984Z,44.85
2022-11-28T02:25:08.863Z,46.67
2022-11-28T02:30:20.693Z,46.30
2022-11-28T02:35:30.104Z,47.95
2022-11-28T02:40:39.234Z,47.03
2022-11-28T02:45:47.777Z,46.20
2022-11-28T02:51:00.090Z,47.05
2022-11-28T02:56:04.285Z,44.60
2022-11-28T03:01:13.519Z,44.63
2022-11-28T03:06:30.030Z,45.05
2022-11-28T03:11:46.640Z,44.72
2022-11-28T03:16:54.541Z,47.25
2022-11-28T03:22:08.380Z,45.35
2022-11-28T03:27:20.048Z,44.50
2022-11-28T03:32:25.646Z,42.80
2022-11-28T03:37:33.707Z,44.10
2022-11-28T03:42:41.006Z,42.78
2022-11-28T03:48:03.446Z,42.72
2022-11-28T03:53:13.725Z,42.30
2022-11-28T03:58:24.215Z,42.25
2022-11-28T04:03:36.895Z,42.75
2022-11-28T04:08:44.635Z,43.25
2022-11-28T04:13:54.195Z,43.53
2022-11-28T04:19:02.573Z,42.47
2022-11-28T04:24:11.485Z,39.40
2022-11-28T04:29:18.750Z,39.75
2022-11-28T04:34:23.964Z,39.67
2022-11-28T04:39:30.083Z,38.25
2022-11-28T04:44:37.566Z,39.78
2022-11-28T04:49:41.092Z,39.70
2022-11-28T04:54:54.030Z,40.00
2022-11-28T04:59:57.835Z,43.10
2022-11-28T05:05:01.354Z,40.55
2022-11-28T05:10:06.462Z,38.65
2022-11-28T05:15:10.698Z,38.67
2022-11-28T05:20:20.673Z,38.38
2022-11-28T05:25:25.143Z,45.03
2022-11-28T05:30:28.049Z,39.50
2022-11-28T05:35:31.009Z,39.70
2022-11-28T05:40:35.238Z,38.47
2022-11-28T05:45:40.811Z,40.78
2022-11-28T05:50:44.087Z,40.35
2022-11-28T05:55:49.032Z,41.53
2022-11-28T06:00:55.003Z,41.03
2022-11-28T06:05:58.027Z,42.78
2022-11-28T06:11:02.355Z,39.20
2022-11-28T06:16:09.026Z,38.47
2022-11-28T06:21:14.198Z,38.92
2022-11-28T06:26:20.750Z,38.05
2022-11-28T06:31:25.250Z,38.17
2022-11-28T06:36:30.565Z,37.13
2022-11-28T06:41:35.001Z,37.72
2022-11-28T06:46:38.011Z,38.35
2022-11-28T06:51:41.885Z,39.90
2022-11-28T06:56:46.161Z,47.85
2022-11-28T07:01:49.310Z,41.85
2022-11-28T07:06:52.223Z,40.90
2022-11-28T07:11:56.507Z,40.63
2022-11-28T07:16:59.478Z,41.80
2022-11-28T07:22:02.438Z,40.92
2022-11-28T07:27:06.758Z,41.95
2022-11-28T07:32:09.800Z,43.97
2022-11-28T07:37:13.097Z,47.92
2022-11-28T07:42:17.378Z,43.88
2022-11-28T07:47:31.704Z,41.50
2022-11-28T07:52:34.935Z,55.25
2022-11-28T07:57:39.265Z,43.25
2022-11-28T08:02:42.250Z,46.85
2022-11-28T08:07:45.213Z,45.38
2022-11-28T08:12:49.570Z,45.78
2022-11-28T08:17:52.449Z,43.28
2022-11-28T08:22:55.376Z,47.50
2022-11-28T08:27:59.676Z,48.50
2022-11-28T08:33:02.584Z,44.03
2022-11-28T08:38:05.460Z,47.80
2022-11-28T08:43:09.698Z,45.58
2022-11-28T08:48:12.575Z,46.50
2022-11-28T08:53:18.639Z,44.72
2022-11-28T08:58:23.009Z,46.20
2022-11-28T09:03:26.064Z,44.42
2022-11-28T09:08:29.070Z,44.70
2022-11-28T09:13:33.337Z,43.60
2022-11-28T09:18:36.376Z,44.55
2022-11-28T09:23:45.546Z,46.20
2022-11-28T09:28:50.015Z,43.15
2022-11-28T09:33:52.938Z,41.15
2022-11-28T09:38:55.944Z,41.70
2022-11-28T09:44:04.291Z,41.05
2022-11-28T09:49:26.336Z,41.47
2022-11-28T09:54:39.567Z,42.75
2022-11-28T09:59:44.266Z,42.45
2022-11-28T10:04:52.932Z,42.47
2022-11-28T10:10:02.934Z,41.47
2022-11-28T10:15:19.441Z,41.65
2022-11-28T10:20:24.546Z,44.72
2022-11-28T10:25:30.654Z,42.53
2022-11-28T10:30:40.883Z,42.33
2022-11-28T10:35:48.526Z,42.45
2022-11-28T10:40:57.033Z,42.53
2022-11-28T10:46:20.284Z,43.58
2022-11-28T10:51:32.251Z,43.60
2022-11-28T10:56:41.954Z,43.72
2022-11-28T11:01:50.142Z,41.58
2022-11-28T11:07:10.179Z,45.72
2022-11-28T11:12:22.571Z,42.55
2022-11-28T11:17:36.258Z,44.03
2022-11-28T11:22:39.606Z,44.58
2022-11-28T11:27:49.862Z,42.53
2022-11-28T11:32:54.821Z,45.47
2022-11-28T11:38:18.344Z,45.17
2022-11-28T11:43:29.090Z,47.30
2022-11-28T11:48:38.366Z,43.65
2022-11-28T11:53:41.321Z,45.53
2022-11-28T11:58:47.720Z,45.33
2022-11-28T12:04:05.598Z,45.28
2022-11-28T12:09:21.790Z,45.50
2022-11-28T12:14:29.846Z,44.55
2022-11-28T12:19:40.643Z,45.42
2022-11-28T12:24:51.546Z,42.83
2022-11-28T12:30:06.037Z,44.75
2022-11-28T12:35:24.185Z,43.65
2022-11-28T12:40:36.687Z,43.53
2022-11-28T12:45:47.281Z,43.40
2022-11-28T12:50:58.742Z,44.30
2022-11-28T12:56:12.263Z,43.45
2022-11-28T13:01:30.693Z,43.20
2022-11-28T13:06:46.850Z,43.10
2022-11-28T13:12:01.387Z,44.97
2022-11-28T13:17:18.642Z,44.15
2022-11-28T13:22:25.703Z,43.55
2022-11-28T13:27:38.521Z,47.00
2022-11-28T13:32:46.475Z,44.70
2022-11-28T13:43:26.241Z,44.28
2022-11-28T13:54:46.154Z,43.00
2022-11-28T13:59:55.611Z,44.63
2022-11-28T14:04:58.686Z,44.38
2022-11-28T14:10:31.843Z,45.42
2022-11-28T14:15:44.130Z,46.55
2022-11-28T14:20:53.440Z,45.50
2022-11-28T14:25:59.539Z,45.47
2022-11-28T14:31:13.980Z,44.38
2022-11-28T14:36:26.459Z,43.53
2022-11-28T14:41:30.902Z,44.92
2022-11-28T14:46:34.726Z,45.45
2022-11-28T14:52:38.002Z,46.67
2022-11-28T14:57:52.519Z,44.65
2022-11-28T15:03:20.927Z,47.70
2022-11-28T15:08:39.902Z,46.75
2022-11-28T15:14:09.949Z,44.50
2022-11-28T15:19:21.610Z,46.53
2022-11-28T15:24:27.294Z,47.08
2022-11-28T15:29:31.659Z,45.70
2022-11-28T15:34:38.918Z,48.45
2022-11-28T15:39:43.418Z,53.53
2022-11-28T15:44:48.297Z,50.97
2022-11-28T15:50:00.730Z,50.42
2022-11-28T15:55:16.564Z,47.03
2022-11-28T16:00:21.970Z,53.45
2022-11-28T16:05:25.799Z,47.75
2022-11-28T16:10:33.718Z,51.72
2022-11-28T16:15:39.091Z,47.67
2022-11-28T16:20:43.255Z,53.92
2022-11-28T16:25:59.922Z,55.30
2022-11-28T16:31:11.679Z,62.60
2022-11-28T16:36:23.005Z,57.05
2022-11-28T16:41:27.229Z,57.63
2022-11-28T16:46:34.761Z,49.08
2022-11-28T16:51:39.839Z,52.40
2022-11-28T16:56:45.635Z,58.20
2022-11-28T17:01:53.793Z,55.33
2022-11-28T17:06:58.503Z,58.08
2022-11-28T17:12:05.410Z,54.05
2022-11-28T17:17:14.098Z,51.17
2022-11-28T17:22:19.322Z,50.17
2022-11-28T17:27:22.221Z,49.97
2022-11-28T17:32:26.570Z,49.95
2022-11-28T17:37:29.492Z,51.83
2022-11-28T17:42:32.720Z,49.33
2022-11-28T17:47:37.044Z,48.67
2022-11-28T17:52:40.103Z,46.88
2022-11-28T17:57:43.316Z,46.53
2022-11-28T18:02:47.796Z,44.83
2022-11-28T18:07:50.781Z,44.50
2022-11-28T18:12:55.264Z,43.80
2022-11-28T18:18:02.462Z,44.35
2022-11-28T18:23:05.507Z,43.20
2022-11-28T18:28:08.591Z,43.90
2022-11-28T18:33:13.622Z,45.50
2022-11-28T18:38:16.531Z,49.63
2022-11-28T18:43:19.403Z,45.35
2022-11-28T18:48:23.695Z,45.03
2022-11-28T18:53:26.629Z,44.50
2022-11-28T18:58:29.569Z,42.95
2022-11-28T19:03:34.553Z,45.03
2022-11-28T19:08:38.617Z,44.45
2022-11-28T19:13:42.626Z,43.80
2022-11-28T19:18:47.973Z,43.10
2022-11-28T19:23:51.410Z,43.67
2022-11-28T19:28:56.481Z,43.85
2022-11-28T19:34:02.935Z,45.05
2022-11-28T19:39:08.265Z,44.92
2022-11-28T19:44:11.714Z,45.88
2022-11-28T19:49:20.525Z,44.60
2022-11-28T19:54:24.854Z,45.15
2022-11-28T19:59:31.254Z,44.38
2022-11-28T20:04:36.126Z,44.65
2022-11-28T20:09:39.614Z,46.25
2022-11-28T20:14:42.531Z,45.30
2022-11-28T20:19:48.039Z,44.15
2022-11-28T20:24:51.908Z,43.10
2022-11-28T20:29:54.981Z,41.88
2022-11-28T20:35:01.160Z,42.58
2022-11-28T20:40:04.393Z,42.70
2022-11-28T20:45:08.291Z,41.08
2022-11-28T20:50:12.700Z,42.92
2022-11-28T20:55:15.745Z,43.38
2022-11-28T21:00:24.944Z,42.88
2022-11-28T21:05:30.996Z,41.13
2022-11-28T21:10:34.756Z,41.90
2022-11-28T21:15:40.606Z,41.88
2022-11-28T21:20:47.096Z,42.05
2022-11-28T21:25:50.020Z,40.95
2022-11-28T21:30:52.994Z,40.90
2022-11-28T21:36:00.127Z,41.72
2022-11-28T21:41:03.344Z,41.85
2022-11-28T21:46:08.104Z,40.78
2022-11-28T21:51:17.681Z,41.80
2022-11-28T21:56:21.889Z,41.70
2022-11-28T22:01:24.814Z,41.10
2022-11-28T22:06:30.243Z,42.35
2022-11-28T22:11:33.457Z,41.30
2022-11-28T22:16:36.355Z,40.42
2022-11-28T22:21:56.629Z,41.75
2022-11-28T22:27:00.407Z,41.25
2022-11-28T22:32:04.341Z,40.75
2022-11-28T22:37:09.882Z,40.35
2022-11-28T22:42:13.761Z,40.05
2022-11-28T22:47:16.694Z,40.45
2022-11-28T22:52:20.923Z,39.50
2022-11-28T22:57:25.024Z,41.17
2022-11-28T23:02:29.077Z,40.65
2022-11-28T23:07:33.639Z,41.30
2022-11-28T23:12:36.983Z,40.92
2022-11-28T23:17:41.016Z,38.70
2022-11-28T23:22:45.232Z,39.80
2022-11-28T23:27:48.617Z,40.85
2022-11-28T23:32:51.671Z,40.75
2022-11-28T23:37:55.935Z,40.53
2022-11-28T23:42:58.862Z,39.70
2022-11-28T23:48:01.775Z,40.00
2022-11-28T23:53:06.050Z,39.05
2022-11-28T23:58:08.939Z,40.72
